Terminal Aerodrome Forecast
Issued by NWS

Home | Current Version | Previous Version | Text Only | Print | Product List | Glossary On
Versions: 1 2 3 4 5 6 7 8 9 10 11 12 13 14
000
FTUS42 TJSJ 111100
TAFNCM
TAF
TNCM 111123Z 1112/1212 08013KT P6SM VCSH SCT020
     FM111300 10014G18KT P6SM SCT021
     FM112300 09011KT P6SM FEW020=

USA.gov is the U.S. government's official web portal to all federal, state and local government web resources and services.